sensor_id;sensor_type;location;lat;lon;timestamp;P1;durP1;ratioP1;P2;durP2;ratioP2
18592;SDS011;9426;54.118;17.948;2024-03-29T00:02:13;6.20;;;2.20;;
18592;SDS011;9426;54.118;17.948;2024-03-29T00:07:39;3.00;;;1.80;;
18592;SDS011;9426;54.118;17.948;2024-03-29T00:13:03;2.43;;;1.77;;
18592;SDS011;9426;54.118;17.948;2024-03-29T00:18:28;2.43;;;1.57;;
18592;SDS011;9426;54.118;17.948;2024-03-29T00:23:56;2.47;;;1.47;;
18592;SDS011;9426;54.118;17.948;2024-03-29T00:29:21;1.67;;;1.20;;
18592;SDS011;9426;54.118;17.948;2024-03-29T00:34:46;2.53;;;1.33;;
18592;SDS011;9426;54.118;17.948;2024-03-29T00:40:13;3.53;;;1.83;;
18592;SDS011;9426;54.118;17.948;2024-03-29T00:45:39;3.13;;;1.70;;
18592;SDS011;9426;54.118;17.948;2024-03-29T00:51:03;2.03;;;1.30;;
18592;SDS011;9426;54.118;17.948;2024-03-29T00:56:29;4.30;;;1.40;;
18592;SDS011;9426;54.118;17.948;2024-03-29T01:01:53;1.40;;;1.13;;
18592;SDS011;9426;54.118;17.948;2024-03-29T01:07:20;1.43;;;1.07;;
18592;SDS011;9426;54.118;17.948;2024-03-29T01:12:50;4.90;;;1.17;;
18592;SDS011;9426;54.118;17.948;2024-03-29T01:18:18;1.37;;;0.93;;
18592;SDS011;9426;54.118;17.948;2024-03-29T01:23:45;1.70;;;1.10;;
18592;SDS011;9426;54.118;17.948;2024-03-29T01:29:16;4.10;;;1.00;;
18592;SDS011;9426;54.118;17.948;2024-03-29T01:34:41;3.00;;;1.20;;
18592;SDS011;9426;54.118;17.948;2024-03-29T01:40:07;1.50;;;1.00;;
18592;SDS011;9426;54.118;17.948;2024-03-29T01:45:39;3.90;;;1.20;;
18592;SDS011;9426;54.118;17.948;2024-03-29T01:51:09;2.10;;;1.20;;
18592;SDS011;9426;54.118;17.948;2024-03-29T01:56:38;1.20;;;0.97;;
18592;SDS011;9426;54.118;17.948;2024-03-29T02:02:08;2.27;;;1.20;;
18592;SDS011;9426;54.118;17.948;2024-03-29T02:07:35;2.97;;;1.20;;
18592;SDS011;9426;54.118;17.948;2024-03-29T02:13:02;2.37;;;1.10;;
18592;SDS011;9426;54.118;17.948;2024-03-29T02:18:29;1.20;;;1.03;;
18592;SDS011;9426;54.118;17.948;2024-03-29T02:23:59;1.67;;;1.00;;
18592;SDS011;9426;54.118;17.948;2024-03-29T02:29:36;1.50;;;1.20;;
18592;SDS011;9426;54.118;17.948;2024-03-29T02:35:02;1.97;;;1.13;;
18592;SDS011;9426;54.118;17.948;2024-03-29T02:40:32;1.60;;;1.30;;
18592;SDS011;9426;54.118;17.948;2024-03-29T02:45:57;2.53;;;1.20;;
18592;SDS011;9426;54.118;17.948;2024-03-29T02:51:24;1.73;;;1.00;;
18592;SDS011;9426;54.118;17.948;2024-03-29T02:56:51;2.17;;;1.10;;
18592;SDS011;9426;54.118;17.948;2024-03-29T03:02:17;1.90;;;1.40;;
18592;SDS011;9426;54.118;17.948;2024-03-29T03:07:42;2.07;;;1.10;;
18592;SDS011;9426;54.118;17.948;2024-03-29T03:13:26;2.77;;;1.40;;
18592;SDS011;9426;54.118;17.948;2024-03-29T03:18:52;3.03;;;1.43;;
18592;SDS011;9426;54.118;17.948;2024-03-29T03:24:18;2.73;;;1.20;;
18592;SDS011;9426;54.118;17.948;2024-03-29T03:29:47;1.87;;;1.10;;
18592;SDS011;9426;54.118;17.948;2024-03-29T03:35:16;2.10;;;1.30;;
18592;SDS011;9426;54.118;17.948;2024-03-29T03:40:42;2.53;;;1.30;;
18592;SDS011;9426;54.118;17.948;2024-03-29T03:46:10;4.10;;;1.20;;
18592;SDS011;9426;54.118;17.948;2024-03-29T03:51:37;2.43;;;1.30;;
18592;SDS011;9426;54.118;17.948;2024-03-29T03:57:05;1.90;;;1.30;;
18592;SDS011;9426;54.118;17.948;2024-03-29T04:02:39;3.73;;;1.10;;
18592;SDS011;9426;54.118;17.948;2024-03-29T04:08:09;3.07;;;1.33;;
18592;SDS011;9426;54.118;17.948;2024-03-29T04:13:38;2.07;;;1.30;;
18592;SDS011;9426;54.118;17.948;2024-03-29T04:19:06;2.57;;;1.33;;
18592;SDS011;9426;54.118;17.948;2024-03-29T04:24:33;3.03;;;1.37;;
18592;SDS011;9426;54.118;17.948;2024-03-29T04:30:00;1.70;;;1.40;;
18592;SDS011;9426;54.118;17.948;2024-03-29T04:35:27;4.67;;;1.50;;
18592;SDS011;9426;54.118;17.948;2024-03-29T04:40:53;3.00;;;1.60;;
18592;SDS011;9426;54.118;17.948;2024-03-29T04:46:19;2.13;;;1.50;;
18592;SDS011;9426;54.118;17.948;2024-03-29T04:51:47;2.93;;;1.50;;
18592;SDS011;9426;54.118;17.948;2024-03-29T04:57:13;3.27;;;1.47;;
18592;SDS011;9426;54.118;17.948;2024-03-29T05:02:40;2.67;;;1.40;;
18592;SDS011;9426;54.118;17.948;2024-03-29T05:08:07;4.60;;;2.00;;
18592;SDS011;9426;54.118;17.948;2024-03-29T05:13:37;3.40;;;1.50;;
18592;SDS011;9426;54.118;17.948;2024-03-29T05:19:05;4.33;;;1.80;;
18592;SDS011;9426;54.118;17.948;2024-03-29T05:24:33;2.53;;;1.80;;
18592;SDS011;9426;54.118;17.948;2024-03-29T05:29:59;3.93;;;2.10;;
18592;SDS011;9426;54.118;17.948;2024-03-29T05:36:00;4.53;;;1.90;;
18592;SDS011;9426;54.118;17.948;2024-03-29T05:48:16;5.07;;;2.07;;
18592;SDS011;9426;54.118;17.948;2024-03-29T05:54:02;2.70;;;1.90;;
18592;SDS011;9426;54.118;17.948;2024-03-29T05:59:33;4.60;;;1.90;;
18592;SDS011;9426;54.118;17.948;2024-03-29T06:04:59;4.47;;;1.60;;
18592;SDS011;9426;54.118;17.948;2024-03-29T06:10:25;3.10;;;1.63;;
18592;SDS011;9426;54.118;17.948;2024-03-29T06:16:01;3.10;;;1.50;;
18592;SDS011;9426;54.118;17.948;2024-03-29T06:22:04;3.30;;;1.47;;
18592;SDS011;9426;54.118;17.948;2024-03-29T06:28:03;5.87;;;1.80;;
18592;SDS011;9426;54.118;17.948;2024-03-29T06:33:53;3.70;;;1.83;;
18592;SDS011;9426;54.118;17.948;2024-03-29T06:40:10;2.90;;;1.60;;
18592;SDS011;9426;54.118;17.948;2024-03-29T07:24:06;4.60;;;1.33;;
18592;SDS011;9426;54.118;17.948;2024-03-29T07:29:48;3.93;;;1.30;;
18592;SDS011;9426;54.118;17.948;2024-03-29T07:35:13;2.87;;;1.67;;
18592;SDS011;9426;54.118;17.948;2024-03-29T07:40:43;2.07;;;1.50;;
18592;SDS011;9426;54.118;17.948;2024-03-29T07:46:16;3.67;;;1.33;;
18592;SDS011;9426;54.118;17.948;2024-03-29T07:51:44;2.37;;;1.20;;
18592;SDS011;9426;54.118;17.948;2024-03-29T07:57:14;2.20;;;1.40;;
18592;SDS011;9426;54.118;17.948;2024-03-29T08:02:41;6.87;;;1.40;;
18592;SDS011;9426;54.118;17.948;2024-03-29T08:08:08;2.50;;;1.20;;
18592;SDS011;9426;54.118;17.948;2024-03-29T08:19:45;6.60;;;1.40;;
18592;SDS011;9426;54.118;17.948;2024-03-29T08:25:33;2.90;;;1.20;;
18592;SDS011;9426;54.118;17.948;2024-03-29T08:31:05;3.57;;;1.40;;
18592;SDS011;9426;54.118;17.948;2024-03-29T08:36:36;9.03;;;1.33;;
18592;SDS011;9426;54.118;17.948;2024-03-29T08:42:04;5.87;;;1.30;;
18592;SDS011;9426;54.118;17.948;2024-03-29T08:47:42;4.33;;;1.37;;
18592;SDS011;9426;54.118;17.948;2024-03-29T08:53:10;4.77;;;1.10;;
18592;SDS011;9426;54.118;17.948;2024-03-29T08:58:35;3.60;;;1.20;;
18592;SDS011;9426;54.118;17.948;2024-03-29T09:04:03;3.63;;;1.20;;
18592;SDS011;9426;54.118;17.948;2024-03-29T09:09:33;6.23;;;1.40;;
18592;SDS011;9426;54.118;17.948;2024-03-29T09:15:02;4.83;;;1.27;;
18592;SDS011;9426;54.118;17.948;2024-03-29T09:20:32;3.53;;;1.00;;
18592;SDS011;9426;54.118;17.948;2024-03-29T09:26:00;4.00;;;1.23;;
18592;SDS011;9426;54.118;17.948;2024-03-29T09:31:31;7.90;;;1.83;;
18592;SDS011;9426;54.118;17.948;2024-03-29T09:37:04;2.70;;;1.33;;
18592;SDS011;9426;54.118;17.948;2024-03-29T09:42:31;2.40;;;1.13;;
18592;SDS011;9426;54.118;17.948;2024-03-29T09:48:00;5.63;;;1.43;;
18592;SDS011;9426;54.118;17.948;2024-03-29T09:53:31;10.37;;;1.23;;
18592;SDS011;9426;54.118;17.948;2024-03-29T09:59:02;3.83;;;1.13;;
18592;SDS011;9426;54.118;17.948;2024-03-29T10:04:31;6.47;;;1.30;;
18592;SDS011;9426;54.118;17.948;2024-03-29T10:10:07;5.60;;;1.37;;
18592;SDS011;9426;54.118;17.948;2024-03-29T10:15:46;5.60;;;1.40;;
18592;SDS011;9426;54.118;17.948;2024-03-29T10:21:24;3.17;;;1.43;;
18592;SDS011;9426;54.118;17.948;2024-03-29T10:33:43;5.50;;;1.40;;
18592;SDS011;9426;54.118;17.948;2024-03-29T10:40:27;4.70;;;1.70;;
18592;SDS011;9426;54.118;17.948;2024-03-29T10:47:08;4.27;;;1.30;;
18592;SDS011;9426;54.118;17.948;2024-03-29T11:01:41;7.07;;;1.40;;
18592;SDS011;9426;54.118;17.948;2024-03-29T11:08:54;4.17;;;1.70;;
18592;SDS011;9426;54.118;17.948;2024-03-29T11:23:02;4.73;;;1.30;;
18592;SDS011;9426;54.118;17.948;2024-03-29T11:50:42;6.03;;;1.40;;
18592;SDS011;9426;54.118;17.948;2024-03-29T12:40:31;3.47;;;1.00;;
18592;SDS011;9426;54.118;17.948;2024-03-29T12:46:00;6.07;;;1.50;;
18592;SDS011;9426;54.118;17.948;2024-03-29T12:51:43;8.93;;;1.40;;
18592;SDS011;9426;54.118;17.948;2024-03-29T12:57:13;6.43;;;1.10;;
18592;SDS011;9426;54.118;17.948;2024-03-29T13:03:04;3.83;;;1.10;;
18592;SDS011;9426;54.118;17.948;2024-03-29T13:08:29;5.20;;;1.20;;
18592;SDS011;9426;54.118;17.948;2024-03-29T13:14:01;3.63;;;0.93;;
18592;SDS011;9426;54.118;17.948;2024-03-29T13:19:35;5.03;;;1.30;;
18592;SDS011;9426;54.118;17.948;2024-03-29T13:25:00;4.97;;;1.40;;
18592;SDS011;9426;54.118;17.948;2024-03-29T13:30:31;5.27;;;1.30;;
18592;SDS011;9426;54.118;17.948;2024-03-29T13:35:52;5.60;;;1.50;;
18592;SDS011;9426;54.118;17.948;2024-03-29T13:48:15;7.90;;;1.60;;
18592;SDS011;9426;54.118;17.948;2024-03-29T13:53:42;5.17;;;1.53;;
18592;SDS011;9426;54.118;17.948;2024-03-29T14:07:27;4.30;;;1.33;;
18592;SDS011;9426;54.118;17.948;2024-03-29T14:20:47;4.73;;;1.20;;
18592;SDS011;9426;54.118;17.948;2024-03-29T14:46:59;5.70;;;1.50;;
18592;SDS011;9426;54.118;17.948;2024-03-29T14:52:22;3.57;;;1.27;;
18592;SDS011;9426;54.118;17.948;2024-03-29T16:59:20;5.00;;;1.60;;
18592;SDS011;9426;54.118;17.948;2024-03-29T17:04:44;4.80;;;2.17;;
18592;SDS011;9426;54.118;17.948;2024-03-29T17:17:20;3.77;;;1.73;;
18592;SDS011;9426;54.118;17.948;2024-03-29T17:22:44;5.40;;;2.00;;
18592;SDS011;9426;54.118;17.948;2024-03-29T17:28:09;7.77;;;2.13;;
18592;SDS011;9426;54.118;17.948;2024-03-29T17:33:54;6.80;;;1.80;;
18592;SDS011;9426;54.118;17.948;2024-03-29T17:39:44;4.70;;;1.70;;
18592;SDS011;9426;54.118;17.948;2024-03-29T17:45:08;4.13;;;1.80;;
18592;SDS011;9426;54.118;17.948;2024-03-29T17:50:34;5.33;;;2.00;;
18592;SDS011;9426;54.118;17.948;2024-03-29T17:55:59;5.43;;;1.60;;
18592;SDS011;9426;54.118;17.948;2024-03-29T18:01:24;4.70;;;2.07;;
18592;SDS011;9426;54.118;17.948;2024-03-29T18:06:50;6.77;;;2.03;;
18592;SDS011;9426;54.118;17.948;2024-03-29T18:12:14;3.37;;;1.60;;
18592;SDS011;9426;54.118;17.948;2024-03-29T18:17:37;3.87;;;1.77;;
18592;SDS011;9426;54.118;17.948;2024-03-29T18:23:04;6.17;;;1.70;;
18592;SDS011;9426;54.118;17.948;2024-03-29T18:28:29;3.60;;;1.37;;
18592;SDS011;9426;54.118;17.948;2024-03-29T18:33:52;4.00;;;1.40;;
18592;SDS011;9426;54.118;17.948;2024-03-29T18:39:17;4.33;;;1.90;;
18592;SDS011;9426;54.118;17.948;2024-03-29T18:44:40;6.40;;;1.70;;
18592;SDS011;9426;54.118;17.948;2024-03-29T18:50:03;4.57;;;2.10;;
18592;SDS011;9426;54.118;17.948;2024-03-29T18:55:28;6.33;;;2.50;;
18592;SDS011;9426;54.118;17.948;2024-03-29T19:00:52;4.93;;;2.37;;
18592;SDS011;9426;54.118;17.948;2024-03-29T19:06:15;5.17;;;2.30;;
18592;SDS011;9426;54.118;17.948;2024-03-29T19:11:44;8.53;;;2.70;;
18592;SDS011;9426;54.118;17.948;2024-03-29T19:17:13;5.10;;;2.60;;
18592;SDS011;9426;54.118;17.948;2024-03-29T19:22:38;5.13;;;2.57;;
18592;SDS011;9426;54.118;17.948;2024-03-29T19:28:24;4.37;;;2.47;;
18592;SDS011;9426;54.118;17.948;2024-03-29T19:33:47;7.77;;;2.60;;
18592;SDS011;9426;54.118;17.948;2024-03-29T19:39:10;4.23;;;2.00;;
18592;SDS011;9426;54.118;17.948;2024-03-29T19:44:36;8.53;;;2.27;;
18592;SDS011;9426;54.118;17.948;2024-03-29T19:49:59;6.33;;;2.00;;
18592;SDS011;9426;54.118;17.948;2024-03-29T19:55:22;5.80;;;2.70;;
18592;SDS011;9426;54.118;17.948;2024-03-29T20:00:46;3.73;;;2.07;;
18592;SDS011;9426;54.118;17.948;2024-03-29T20:06:09;7.63;;;2.63;;
18592;SDS011;9426;54.118;17.948;2024-03-29T20:11:32;6.63;;;2.33;;
18592;SDS011;9426;54.118;17.948;2024-03-29T20:16:56;5.87;;;2.50;;
18592;SDS011;9426;54.118;17.948;2024-03-29T20:22:19;7.90;;;3.90;;
18592;SDS011;9426;54.118;17.948;2024-03-29T20:27:42;8.43;;;3.00;;
18592;SDS011;9426;54.118;17.948;2024-03-29T20:33:07;12.93;;;3.70;;
18592;SDS011;9426;54.118;17.948;2024-03-29T20:38:30;7.60;;;3.37;;
18592;SDS011;9426;54.118;17.948;2024-03-29T20:43:52;11.67;;;2.90;;
18592;SDS011;9426;54.118;17.948;2024-03-29T20:49:16;7.03;;;2.80;;
18592;SDS011;9426;54.118;17.948;2024-03-29T20:54:39;9.13;;;3.00;;
18592;SDS011;9426;54.118;17.948;2024-03-29T21:00:02;6.77;;;2.87;;
18592;SDS011;9426;54.118;17.948;2024-03-29T21:05:28;9.23;;;3.07;;
18592;SDS011;9426;54.118;17.948;2024-03-29T21:10:54;10.10;;;3.40;;
18592;SDS011;9426;54.118;17.948;2024-03-29T21:16:16;9.60;;;2.90;;
18592;SDS011;9426;54.118;17.948;2024-03-29T21:21:41;11.77;;;3.50;;
18592;SDS011;9426;54.118;17.948;2024-03-29T21:27:03;12.20;;;4.33;;
18592;SDS011;9426;54.118;17.948;2024-03-29T21:32:27;7.47;;;3.13;;
18592;SDS011;9426;54.118;17.948;2024-03-29T21:37:51;10.23;;;2.93;;
18592;SDS011;9426;54.118;17.948;2024-03-29T21:43:15;6.13;;;2.43;;
18592;SDS011;9426;54.118;17.948;2024-03-29T21:48:38;9.50;;;3.23;;
18592;SDS011;9426;54.118;17.948;2024-03-29T21:54:02;7.73;;;3.20;;
18592;SDS011;9426;54.118;17.948;2024-03-29T21:59:25;10.33;;;3.60;;
18592;SDS011;9426;54.118;17.948;2024-03-29T22:04:48;8.77;;;3.57;;
18592;SDS011;9426;54.118;17.948;2024-03-29T22:10:16;8.87;;;3.40;;
18592;SDS011;9426;54.118;17.948;2024-03-29T22:15:40;7.23;;;3.40;;
18592;SDS011;9426;54.118;17.948;2024-03-29T22:21:05;8.83;;;3.30;;
18592;SDS011;9426;54.118;17.948;2024-03-29T22:26:29;8.23;;;3.20;;
18592;SDS011;9426;54.118;17.948;2024-03-29T22:31:52;8.80;;;3.37;;
18592;SDS011;9426;54.118;17.948;2024-03-29T22:37:15;10.90;;;3.23;;
18592;SDS011;9426;54.118;17.948;2024-03-29T22:42:42;7.97;;;3.27;;
18592;SDS011;9426;54.118;17.948;2024-03-29T22:48:07;12.30;;;3.57;;
18592;SDS011;9426;54.118;17.948;2024-03-29T22:53:32;7.43;;;2.93;;
18592;SDS011;9426;54.118;17.948;2024-03-29T22:59:00;12.33;;;3.30;;
18592;SDS011;9426;54.118;17.948;2024-03-29T23:04:26;9.03;;;3.47;;
18592;SDS011;9426;54.118;17.948;2024-03-29T23:09:51;7.40;;;3.43;;
18592;SDS011;9426;54.118;17.948;2024-03-29T23:15:18;7.23;;;3.30;;
18592;SDS011;9426;54.118;17.948;2024-03-29T23:20:49;14.53;;;3.77;;
18592;SDS011;9426;54.118;17.948;2024-03-29T23:26:15;8.33;;;3.40;;
18592;SDS011;9426;54.118;17.948;2024-03-29T23:31:40;13.47;;;4.00;;
18592;SDS011;9426;54.118;17.948;2024-03-29T23:37:03;8.57;;;3.37;;
18592;SDS011;9426;54.118;17.948;2024-03-29T23:42:30;8.53;;;3.63;;
18592;SDS011;9426;54.118;17.948;2024-03-29T23:47:55;11.33;;;3.37;;
18592;SDS011;9426;54.118;17.948;2024-03-29T23:53:19;13.37;;;4.20;;
18592;SDS011;9426;54.118;17.948;2024-03-29T23:58:42;6.20;;;2.97;;
